CheckWX is a tool to help pilots better visualize weather data.  It is not intended as a substitute for an official pre-flight weather briefing.

19:56:50 UTC

ZWSH TAF
Kashgar Airport
Kashgar, China
TAF ZWSH 251503Z 2518/2618 31007MPS 9999 BKN040 TX25/2609Z TN15/2600Z TEMPO 2518/2522 -SHRA FEW040CB BKN040 BECMG 2604/2605 06004MPS

Jun-25@
18:00 UTC

Jun-25 @ 18:00 UTC

Jun-26@
04:00 UTC

Jun-26 @ 04:00 UTC

TAF ZWSH 251503Z 2518/2618 31007MPS 9999 BKN040 TX25/2609Z TN15/2600Z
Wind
  • 310° at 14 KTS
Cloud Levels
  • Broken at 4,000' AGL

Jun-25@
18:00 UTC

Jun-25 @ 18:00 UTC

Jun-25@
22:00 UTC

Jun-25 @ 22:00 UTC

TEMPO 2518/2522 -SHRA FEW040CB BKN040

Temporary

Temporary Changes expected for less than half the time period

Conditions
Light Rain
Cloud Levels
  • Few at 4,000' AGL
  • Broken at 4,000' AGL

Jun-26@
04:00 UTC

Jun-26 @ 04:00 UTC

Jun-26@
18:00 UTC

Jun-26 @ 18:00 UTC

BECMG 2604/2605 06004MPS

Becoming

Becoming Conditions expected by Wed, Jun 26, 2019 @ 05:00 UTC

Wind
  • 060° at 8 KTS
Cloud Levels
  • Broken at 4,000' AGL